createdAt,value
2019-05-10T00:00:36.803Z,99.90
2019-05-10T00:03:23.210Z,99.90
2019-05-10T00:06:09.583Z,99.90
2019-05-10T00:08:46.778Z,99.90
2019-05-10T00:11:39.147Z,99.90
2019-05-10T00:14:27.396Z,99.90
2019-05-10T00:16:57.619Z,99.90
2019-05-10T00:19:26.038Z,99.90
2019-05-10T00:24:30.086Z,99.90
2019-05-10T00:26:58.679Z,99.90
2019-05-10T00:29:29.061Z,99.90
2019-05-10T00:31:57.582Z,99.90
2019-05-10T00:34:25.980Z,99.90
2019-05-10T00:36:55.073Z,99.90
2019-05-10T00:39:23.490Z,99.90
2019-05-10T00:41:51.902Z,99.90
2019-05-10T00:44:20.326Z,99.90
2019-05-10T00:46:48.763Z,99.90
2019-05-10T00:49:17.181Z,99.90
2019-05-10T00:51:45.618Z,99.90
2019-05-10T00:54:14.042Z,99.90
2019-05-10T00:56:42.460Z,99.90
2019-05-10T00:59:10.907Z,99.90
2019-05-10T01:01:39.314Z,99.90
2019-05-10T01:04:07.755Z,99.90
2019-05-10T01:06:36.171Z,99.90
2019-05-10T01:09:25.459Z,99.90
2019-05-10T01:11:53.869Z,99.90
2019-05-10T01:14:22.353Z,99.90
2019-05-10T01:16:50.776Z,99.90
2019-05-10T01:19:19.203Z,99.90
2019-05-10T01:21:47.723Z,99.90
2019-05-10T01:24:30.407Z,99.90
2019-05-10T01:27:07.057Z,99.90
2019-05-10T01:29:40.571Z,99.90
2019-05-10T01:32:12.762Z,99.90
2019-05-10T01:34:44.121Z,99.90
2019-05-10T01:37:18.490Z,99.90
2019-05-10T01:40:05.887Z,99.90
2019-05-10T01:42:37.882Z,99.90
2019-05-10T01:45:16.300Z,99.90
2019-05-10T01:47:50.768Z,99.90
2019-05-10T01:50:23.512Z,99.90
2019-05-10T01:53:03.485Z,99.90
2019-05-10T01:58:38.272Z,99.90
2019-05-10T02:01:19.031Z,99.90
2019-05-10T02:04:01.051Z,99.90
2019-05-10T02:06:40.886Z,99.90
2019-05-10T02:09:23.025Z,99.90
2019-05-10T02:12:14.492Z,99.90
2019-05-10T02:14:51.171Z,99.90
2019-05-10T02:17:31.292Z,99.90
2019-05-10T02:20:07.349Z,99.90
2019-05-10T02:22:38.207Z,99.90
2019-05-10T02:25:11.870Z,99.90
2019-05-10T02:27:45.804Z,99.90
2019-05-10T02:30:34.765Z,99.90
2019-05-10T02:33:10.557Z,99.90
2019-05-10T02:35:48.699Z,99.90
2019-05-10T02:38:23.600Z,99.90
2019-05-10T02:41:00.325Z,99.90
2019-05-10T02:43:33.693Z,99.90
2019-05-10T02:46:07.121Z,99.90
2019-05-10T02:48:58.666Z,99.90
2019-05-10T02:51:50.538Z,99.90
2019-05-10T02:54:25.726Z,99.90
2019-05-10T03:02:58.975Z,99.90
2019-05-10T03:05:51.915Z,99.90
2019-05-10T03:14:28.670Z,99.90
2019-05-10T03:17:12.065Z,99.90
2019-05-10T03:22:40.255Z,99.90
2019-05-10T03:25:29.609Z,99.90
2019-05-10T03:31:15.733Z,99.90
2019-05-10T03:33:59.453Z,99.90
2019-05-10T03:36:31.629Z,99.90
2019-05-10T03:42:00.740Z,99.90
2019-05-10T03:44:29.155Z,99.90
2019-05-10T03:46:57.604Z,99.90
2019-05-10T03:49:26.014Z,99.90
2019-05-10T03:51:54.462Z,99.90
2019-05-10T03:54:22.944Z,99.90
2019-05-10T03:57:11.080Z,99.90
2019-05-10T03:59:21.511Z,99.90
2019-05-10T04:01:49.932Z,99.90
2019-05-10T04:04:18.356Z,99.90
2019-05-10T04:06:46.780Z,99.90
2019-05-10T04:09:15.211Z,99.90
2019-05-10T04:11:43.693Z,99.90
2019-05-10T04:14:12.137Z,99.90
2019-05-10T04:16:40.577Z,99.90
2019-05-10T04:19:09.007Z,99.90
2019-05-10T04:21:38.417Z,99.90
2019-05-10T04:24:06.820Z,99.90
2019-05-10T04:26:36.532Z,99.90
2019-05-10T04:29:05.040Z,99.90
2019-05-10T04:31:33.461Z,99.90
2019-05-10T04:34:01.868Z,99.90
2019-05-10T04:36:30.345Z,99.90
2019-05-10T04:38:58.772Z,99.90
2019-05-10T04:41:27.195Z,99.90
2019-05-10T04:43:55.617Z,99.90
2019-05-10T04:46:24.239Z,99.90
2019-05-10T04:48:52.654Z,99.90
2019-05-10T04:51:21.087Z,99.90
2019-05-10T04:53:49.502Z,99.90
2019-05-10T04:56:18.921Z,99.90
2019-05-10T04:58:47.316Z,99.90
2019-05-10T05:01:15.740Z,99.90
2019-05-10T05:03:44.178Z,99.90
2019-05-10T05:06:12.638Z,99.90
2019-05-10T05:08:41.066Z,99.90
2019-05-10T05:11:09.476Z,99.90
2019-05-10T05:13:38.012Z,99.90
2019-05-10T05:16:06.431Z,99.90
2019-05-10T05:18:34.841Z,99.90
2019-05-10T05:21:04.290Z,99.90
2019-05-10T05:23:32.707Z,99.90
2019-05-10T05:26:01.393Z,99.90
2019-05-10T05:28:29.807Z,99.90
2019-05-10T05:30:58.208Z,99.90
2019-05-10T05:33:26.702Z,99.90
2019-05-10T05:35:55.212Z,99.90
2019-05-10T05:38:23.655Z,99.90
2019-05-10T05:40:52.834Z,99.90
2019-05-10T05:43:21.340Z,99.90
2019-05-10T05:45:49.751Z,99.90
2019-05-10T05:48:21.320Z,99.90
2019-05-10T05:50:48.329Z,99.90
2019-05-10T05:53:16.766Z,99.90
2019-05-10T05:55:45.240Z,99.90
2019-05-10T05:58:25.713Z,99.90
2019-05-10T06:00:44.964Z,99.90
2019-05-10T06:03:19.447Z,99.90
2019-05-10T06:05:44.169Z,99.90
2019-05-10T06:08:30.049Z,99.90
2019-05-10T06:10:44.053Z,99.90
2019-05-10T06:13:12.655Z,99.90
2019-05-10T06:15:41.065Z,99.90
2019-05-10T06:18:11.962Z,99.90
2019-05-10T06:20:44.496Z,99.90
2019-05-10T06:23:09.860Z,99.90
2019-05-10T06:25:40.568Z,99.90
2019-05-10T06:28:24.995Z,99.90
2019-05-10T06:30:38.604Z,99.90
2019-05-10T06:33:12.596Z,99.90
2019-05-10T06:35:37.148Z,99.90
2019-05-10T06:38:05.586Z,99.90
2019-05-10T06:40:39.540Z,99.90
2019-05-10T06:43:07.019Z,99.90
2019-05-10T06:45:34.354Z,99.90
2019-05-10T06:48:02.800Z,99.90
2019-05-10T06:50:31.917Z,99.90
2019-05-10T06:53:07.948Z,99.90
2019-05-10T06:55:30.673Z,99.90
2019-05-10T06:58:00.856Z,99.90
2019-05-10T07:00:29.302Z,99.90
2019-05-10T07:02:57.751Z,99.90
2019-05-10T07:05:26.187Z,99.90
2019-05-10T07:08:00.598Z,99.90
2019-05-10T07:10:25.351Z,99.90
2019-05-10T07:12:57.334Z,99.90
2019-05-10T07:15:24.322Z,99.90
2019-05-10T07:17:52.733Z,99.90
2019-05-10T07:20:23.619Z,99.90
2019-05-10T07:22:51.370Z,99.90
2019-05-10T07:25:19.793Z,99.90
2019-05-10T07:27:50.294Z,99.90
2019-05-10T07:30:27.278Z,99.90
2019-05-10T07:32:59.775Z,99.90
2019-05-10T07:35:30.992Z,99.90
2019-05-10T07:37:56.025Z,99.90
2019-05-10T07:40:25.053Z,99.90
2019-05-10T07:42:53.470Z,99.90
2019-05-10T07:45:25.734Z,99.90
2019-05-10T07:47:52.091Z,99.90
2019-05-10T07:50:20.507Z,99.90
2019-05-10T07:52:48.947Z,99.90
2019-05-10T07:55:27.953Z,99.90
2019-05-10T07:57:47.835Z,99.90
2019-05-10T08:00:16.682Z,99.90
2019-05-10T08:02:54.998Z,99.90
2019-05-10T08:05:15.658Z,99.90
2019-05-10T08:07:44.099Z,99.90
2019-05-10T08:10:12.604Z,99.90
2019-05-10T08:12:45.477Z,99.90
2019-05-10T08:15:11.529Z,99.90
2019-05-10T08:17:45.218Z,99.90
2019-05-10T08:20:22.090Z,99.90
2019-05-10T08:22:44.472Z,99.90
2019-05-10T08:25:12.695Z,99.90
2019-05-10T08:27:44.107Z,99.90
2019-05-10T08:30:22.672Z,99.90
2019-05-10T08:32:42.467Z,99.90
2019-05-10T08:35:16.552Z,99.90
2019-05-10T08:37:43.313Z,99.90
2019-05-10T08:40:12.790Z,99.90
2019-05-10T08:42:48.270Z,99.90
2019-05-10T08:45:12.564Z,99.90
2019-05-10T08:47:42.632Z,99.90
2019-05-10T08:50:26.330Z,99.90
2019-05-10T08:52:42.359Z,99.90
2019-05-10T08:55:12.282Z,99.90
2019-05-10T08:57:47.343Z,99.90
2019-05-10T09:00:12.977Z,99.90
2019-05-10T09:02:42.746Z,99.90
2019-05-10T09:05:12.578Z,99.90
2019-05-10T09:07:43.065Z,99.90
2019-05-10T09:10:12.800Z,99.90
2019-05-10T09:12:50.519Z,99.90
2019-05-10T09:15:13.609Z,99.90
2019-05-10T09:17:42.829Z,99.90
2019-05-10T09:20:20.937Z,99.90
2019-05-10T09:22:42.546Z,99.90
2019-05-10T09:25:12.795Z,99.90
2019-05-10T09:27:43.130Z,99.90
2019-05-10T09:30:14.108Z,99.90
2019-05-10T09:32:43.503Z,99.90
2019-05-10T09:35:12.925Z,99.90
2019-05-10T09:37:42.163Z,99.90
2019-05-10T09:40:13.446Z,99.90
2019-05-10T09:42:43.611Z,99.90
2019-05-10T09:45:13.187Z,99.90
2019-05-10T09:47:43.427Z,99.90
2019-05-10T09:50:12.930Z,99.90
2019-05-10T09:52:41.462Z,99.90
2019-05-10T09:55:14.825Z,99.90
2019-05-10T09:57:41.737Z,99.90
2019-05-10T10:00:11.014Z,99.90
2019-05-10T10:02:40.496Z,99.90
2019-05-10T10:05:09.562Z,99.90
2019-05-10T10:07:37.993Z,99.90
2019-05-10T10:10:07.534Z,99.90
2019-05-10T10:12:37.310Z,99.90
2019-05-10T10:15:09.266Z,99.90
2019-05-10T10:17:41.944Z,99.90
2019-05-10T10:20:08.432Z,99.90
2019-05-10T10:22:38.074Z,99.90
2019-05-10T10:25:07.588Z,99.90
2019-05-10T10:27:39.140Z,99.90
2019-05-10T10:30:12.755Z,99.90
2019-05-10T10:32:37.699Z,99.90
2019-05-10T10:35:07.853Z,99.90
2019-05-10T10:37:37.886Z,99.90
2019-05-10T10:40:08.628Z,99.90
2019-05-10T10:42:38.185Z,99.90
2019-05-10T10:45:08.797Z,99.90
2019-05-10T10:47:38.096Z,99.90
2019-05-10T10:50:13.018Z,99.90
2019-05-10T10:52:38.242Z,99.90
2019-05-10T10:55:11.066Z,99.90
2019-05-10T10:57:38.015Z,99.90
2019-05-10T11:00:08.995Z,99.90
2019-05-10T11:02:41.076Z,99.90
2019-05-10T11:05:08.686Z,99.90
2019-05-10T11:07:41.078Z,99.90
2019-05-10T11:10:17.990Z,99.90
2019-05-10T11:12:38.244Z,99.90
2019-05-10T11:15:07.391Z,99.90
2019-05-10T11:17:35.822Z,99.90
2019-05-10T11:20:08.629Z,99.90
2019-05-10T11:22:41.830Z,99.90
2019-05-10T11:25:09.785Z,99.90
2019-05-10T11:27:36.480Z,99.90
2019-05-10T11:30:06.838Z,99.90
2019-05-10T11:32:35.247Z,99.90
2019-05-10T11:35:05.474Z,99.90
2019-05-10T11:37:36.336Z,99.90
2019-05-10T11:40:07.051Z,99.90
2019-05-10T11:42:37.553Z,99.90
2019-05-10T11:45:07.196Z,99.90
2019-05-10T11:47:35.602Z,99.80
2019-05-10T11:50:06.707Z,99.10
2019-05-10T11:52:36.488Z,98.90
2019-05-10T11:55:05.917Z,99.80
2019-05-10T11:57:34.357Z,98.90
2019-05-10T12:00:02.790Z,99.20
2019-05-10T12:02:38.765Z,98.90
2019-05-10T12:05:11.027Z,99.50
2019-05-10T12:07:42.690Z,99.80
2019-05-10T12:10:08.268Z,98.40
2019-05-10T12:12:50.536Z,99.90
2019-05-10T12:15:04.359Z,98.70
2019-05-10T12:17:32.103Z,98.90
2019-05-10T12:20:02.445Z,98.70
2019-05-10T12:22:38.176Z,98.10
2019-05-10T12:25:23.328Z,97.30
2019-05-10T12:27:44.099Z,98.50
2019-05-10T12:30:03.367Z,98.00
2019-05-10T12:32:33.441Z,99.70
2019-05-10T12:35:01.623Z,96.10
2019-05-10T12:37:30.819Z,97.20
2019-05-10T12:40:06.227Z,96.60
2019-05-10T12:42:31.706Z,98.10
2019-05-10T12:45:01.279Z,97.50
2019-05-10T12:47:30.562Z,97.40
2019-05-10T12:50:02.107Z,98.00
2019-05-10T12:52:32.066Z,97.20
2019-05-10T12:55:00.660Z,97.30
2019-05-10T12:57:29.090Z,97.80
2019-05-10T12:59:57.978Z,97.50
2019-05-10T13:02:26.405Z,98.50
2019-05-10T13:04:54.824Z,97.50
2019-05-10T13:07:23.230Z,97.20
2019-05-10T13:10:02.686Z,96.10
2019-05-10T13:12:21.854Z,96.80
2019-05-10T13:14:52.895Z,96.00
2019-05-10T13:17:20.388Z,97.00
2019-05-10T13:19:52.717Z,97.00
2019-05-10T13:22:18.971Z,95.00
2019-05-10T13:24:47.432Z,94.60
2019-05-10T13:27:15.862Z,95.00
2019-05-10T13:29:47.003Z,94.40
2019-05-10T13:32:14.761Z,94.00
2019-05-10T13:34:44.585Z,93.60
2019-05-10T13:37:22.750Z,93.80
2019-05-10T13:39:43.178Z,96.00
2019-05-10T13:42:11.677Z,96.10
2019-05-10T13:44:42.979Z,95.40
2019-05-10T13:47:10.379Z,95.90
2019-05-10T13:49:38.832Z,96.10
2019-05-10T13:52:07.316Z,95.90
2019-05-10T13:54:36.390Z,97.40
2019-05-10T13:57:05.981Z,96.20
2019-05-10T13:59:34.866Z,97.20
2019-05-10T14:02:03.309Z,97.70
2019-05-10T14:04:34.043Z,98.30
2019-05-10T14:07:01.908Z,98.60
2019-05-10T14:09:30.338Z,99.30
2019-05-10T14:11:58.769Z,98.60
2019-05-10T14:14:27.173Z,98.50
2019-05-10T14:16:55.607Z,99.90
2019-05-10T14:19:25.468Z,99.20
2019-05-10T14:21:54.179Z,98.30
2019-05-10T14:24:22.586Z,97.30
2019-05-10T14:26:51.476Z,96.80
2019-05-10T14:29:33.327Z,97.90
2019-05-10T14:31:51.312Z,97.40
2019-05-10T14:34:19.797Z,96.70
2019-05-10T14:36:49.170Z,96.60
2019-05-10T14:39:17.627Z,98.30
2019-05-10T14:41:50.849Z,97.20
2019-05-10T14:44:16.553Z,96.60
2019-05-10T14:46:44.965Z,97.30
2019-05-10T14:49:13.381Z,96.70
2019-05-10T14:51:57.779Z,96.50
2019-05-10T14:54:11.946Z,96.70
2019-05-10T14:56:40.451Z,96.70
2019-05-10T14:59:08.972Z,97.00
2019-05-10T15:01:42.954Z,96.00
2019-05-10T15:04:07.698Z,95.60
2019-05-10T15:06:36.848Z,95.60
2019-05-10T15:09:07.748Z,96.60
2019-05-10T15:11:37.890Z,96.40
2019-05-10T15:14:06.447Z,96.20
2019-05-10T15:16:34.956Z,95.40
2019-05-10T15:19:03.402Z,94.60
2019-05-10T15:21:34.544Z,96.20
2019-05-10T15:24:03.102Z,95.80
2019-05-10T15:26:31.581Z,95.50
2019-05-10T15:29:00.008Z,95.30
2019-05-10T15:31:29.143Z,96.00
2019-05-10T15:33:58.592Z,96.80
2019-05-10T15:36:29.843Z,96.20
2019-05-10T15:38:57.252Z,95.70
2019-05-10T15:41:25.688Z,95.50
2019-05-10T15:43:54.984Z,95.30
2019-05-10T15:46:36.095Z,96.00
2019-05-10T15:48:53.749Z,95.90
2019-05-10T15:51:35.240Z,94.90
2019-05-10T15:53:52.363Z,96.30
2019-05-10T15:56:20.756Z,96.10
2019-05-10T15:58:49.222Z,95.90
2019-05-10T16:01:26.119Z,96.10
2019-05-10T16:03:47.756Z,96.60
2019-05-10T16:06:16.178Z,97.20
2019-05-10T16:08:44.842Z,95.40
2019-05-10T16:11:18.727Z,96.20
2019-05-10T16:13:43.445Z,96.10
2019-05-10T16:16:12.887Z,97.60
2019-05-10T16:18:41.749Z,97.20
2019-05-10T16:21:15.272Z,98.80
2019-05-10T16:23:41.528Z,97.30
2019-05-10T16:26:10.866Z,98.20
2019-05-10T16:28:39.294Z,99.10
2019-05-10T16:31:07.714Z,98.40
2019-05-10T16:33:36.148Z,99.20
2019-05-10T16:36:04.650Z,99.90
2019-05-10T16:38:33.069Z,99.90
2019-05-10T16:41:01.496Z,99.90
2019-05-10T16:43:29.905Z,99.90
2019-05-10T16:45:58.391Z,99.90
2019-05-10T16:48:28.351Z,99.90
2019-05-10T16:50:57.152Z,99.90
2019-05-10T16:53:25.576Z,99.90
2019-05-10T16:55:54.021Z,99.90
2019-05-10T16:58:22.537Z,99.90
2019-05-10T17:00:50.922Z,99.90
2019-05-10T17:03:20.641Z,99.90
2019-05-10T17:05:53.496Z,99.90
2019-05-10T17:08:19.502Z,99.90
2019-05-10T17:10:47.924Z,99.90
2019-05-10T17:13:16.360Z,99.90
2019-05-10T17:15:44.771Z,99.90
2019-05-10T17:18:17.602Z,99.90
2019-05-10T17:20:45.373Z,99.90
2019-05-10T17:23:13.501Z,99.90
2019-05-10T17:25:42.371Z,99.90
2019-05-10T17:28:10.915Z,99.90
2019-05-10T17:30:39.344Z,99.90
2019-05-10T17:33:10.797Z,99.90
2019-05-10T17:35:42.123Z,99.90
2019-05-10T17:38:13.921Z,99.90
2019-05-10T17:40:42.291Z,99.90
2019-05-10T17:43:08.517Z,99.90
2019-05-10T17:45:40.426Z,99.90
2019-05-10T17:48:08.725Z,99.90
2019-05-10T17:50:37.396Z,99.90
2019-05-10T17:53:05.878Z,99.90
2019-05-10T17:55:34.308Z,99.90
2019-05-10T17:58:02.736Z,99.90
2019-05-10T18:00:31.235Z,99.90
2019-05-10T18:02:59.668Z,99.90
2019-05-10T18:05:28.238Z,99.90
2019-05-10T18:07:56.893Z,99.90
2019-05-10T18:10:25.400Z,99.90
2019-05-10T18:12:57.323Z,99.90
2019-05-10T18:15:27.846Z,99.90
2019-05-10T18:17:57.577Z,99.90
2019-05-10T18:20:24.390Z,99.90
2019-05-10T18:22:52.820Z,99.90
2019-05-10T18:25:22.370Z,99.90
2019-05-10T18:27:50.906Z,99.90
2019-05-10T18:30:20.182Z,99.90
2019-05-10T18:32:48.634Z,99.90
2019-05-10T18:35:17.211Z,99.90
2019-05-10T18:37:45.712Z,99.90
2019-05-10T18:40:14.402Z,99.90
2019-05-10T18:42:42.846Z,99.90
2019-05-10T18:45:11.395Z,99.90
2019-05-10T18:47:39.828Z,99.90
2019-05-10T18:50:08.898Z,99.90
2019-05-10T18:52:37.309Z,99.90
2019-05-10T18:55:06.089Z,99.90
2019-05-10T18:57:34.512Z,99.90
2019-05-10T19:00:03.272Z,99.90
2019-05-10T19:02:31.864Z,99.90
2019-05-10T19:05:00.308Z,99.90
2019-05-10T19:07:28.751Z,99.90
2019-05-10T19:09:57.173Z,99.90
2019-05-10T19:12:25.909Z,99.90
2019-05-10T19:14:54.602Z,99.90
2019-05-10T19:17:23.031Z,99.90
2019-05-10T19:19:51.459Z,99.90
2019-05-10T19:22:19.892Z,99.90
2019-05-10T19:24:48.293Z,99.90
2019-05-10T19:27:16.707Z,99.90
2019-05-10T19:29:47.581Z,99.90
2019-05-10T19:32:18.013Z,99.90
2019-05-10T19:34:48.398Z,99.90
2019-05-10T19:37:28.370Z,99.90
2019-05-10T19:39:45.809Z,99.90
2019-05-10T19:42:14.320Z,99.90
2019-05-10T19:44:42.781Z,99.90
2019-05-10T19:47:17.389Z,99.90
2019-05-10T19:49:45.885Z,99.90
2019-05-10T19:52:11.787Z,99.90
2019-05-10T19:54:40.281Z,99.90
2019-05-10T19:57:15.083Z,99.90
2019-05-10T19:59:44.145Z,99.90
2019-05-10T20:02:09.048Z,99.90
2019-05-10T20:04:37.524Z,99.90
2019-05-10T20:07:06.012Z,99.90
2019-05-10T20:09:34.427Z,99.90
2019-05-10T20:12:02.894Z,99.90
2019-05-10T20:14:31.583Z,99.90
2019-05-10T20:17:00.033Z,99.90
2019-05-10T20:19:28.534Z,99.90
2019-05-10T20:21:57.010Z,99.90
2019-05-10T20:24:25.413Z,99.90
2019-05-10T20:26:53.958Z,99.90
2019-05-10T20:29:22.371Z,99.90
2019-05-10T20:31:52.702Z,99.90
2019-05-10T20:34:24.168Z,99.90
2019-05-10T20:36:51.252Z,99.90
2019-05-10T20:39:19.703Z,99.90
2019-05-10T20:41:48.124Z,99.90
2019-05-10T20:44:17.988Z,99.90
2019-05-10T20:46:46.715Z,99.90
2019-05-10T20:49:15.128Z,99.90
2019-05-10T20:51:43.570Z,99.90
2019-05-10T20:54:12.044Z,99.90
2019-05-10T20:56:40.459Z,99.90
2019-05-10T20:59:08.901Z,99.90
2019-05-10T21:01:37.313Z,99.90
2019-05-10T21:04:05.729Z,99.90
2019-05-10T21:06:34.167Z,99.90
2019-05-10T21:09:05.091Z,99.90
2019-05-10T21:11:33.559Z,99.90
2019-05-10T21:14:01.984Z,99.90
2019-05-10T21:16:30.456Z,99.90
2019-05-10T21:18:58.883Z,99.90
2019-05-10T21:21:27.390Z,99.90
2019-05-10T21:23:55.818Z,99.90
2019-05-10T21:26:24.357Z,99.90
2019-05-10T21:28:52.762Z,99.90
2019-05-10T21:31:23.859Z,99.90
2019-05-10T21:34:07.510Z,99.90
2019-05-10T21:36:24.721Z,99.90
2019-05-10T21:38:52.586Z,99.90
2019-05-10T21:41:21.007Z,99.90
2019-05-10T21:43:49.432Z,99.90
2019-05-10T21:46:17.858Z,99.90
2019-05-10T21:48:46.296Z,99.90
2019-05-10T21:51:14.704Z,99.90
2019-05-10T21:53:43.150Z,99.90
2019-05-10T21:56:11.567Z,99.90
2019-05-10T21:58:40.011Z,99.90
2019-05-10T22:01:08.524Z,99.90
2019-05-10T22:03:37.089Z,99.90
2019-05-10T22:06:06.238Z,99.90
2019-05-10T22:08:48.386Z,99.90
2019-05-10T22:11:05.181Z,99.90
2019-05-10T22:13:33.618Z,99.90
2019-05-10T22:16:02.082Z,99.90
2019-05-10T22:18:30.545Z,99.90
2019-05-10T22:20:58.954Z,99.90
2019-05-10T22:23:27.389Z,99.90
2019-05-10T22:25:55.788Z,99.90
2019-05-10T22:28:24.230Z,99.90
2019-05-10T22:30:52.671Z,99.90
2019-05-10T22:33:21.091Z,99.90
2019-05-10T22:35:49.538Z,99.90
2019-05-10T22:38:17.951Z,99.90
2019-05-10T22:40:46.403Z,99.90
2019-05-10T22:43:14.815Z,99.90
2019-05-10T22:45:43.277Z,99.90
2019-05-10T22:48:11.703Z,99.90
2019-05-10T22:50:40.186Z,99.90
2019-05-10T22:53:08.625Z,99.90
2019-05-10T22:55:37.026Z,99.90
2019-05-10T22:58:05.521Z,99.90
2019-05-10T23:00:34.026Z,99.90
2019-05-10T23:03:02.466Z,99.90
2019-05-10T23:05:30.891Z,99.90
2019-05-10T23:07:59.316Z,99.90
2019-05-10T23:10:27.757Z,99.90
2019-05-10T23:12:56.178Z,99.90
2019-05-10T23:15:24.614Z,99.90
2019-05-10T23:17:53.047Z,99.90
2019-05-10T23:20:21.475Z,99.90
2019-05-10T23:22:49.902Z,99.90
2019-05-10T23:25:18.370Z,99.90
2019-05-10T23:27:46.846Z,99.90
2019-05-10T23:30:15.343Z,99.90
2019-05-10T23:32:43.774Z,99.90
2019-05-10T23:35:12.248Z,99.90
2019-05-10T23:37:40.673Z,99.90
2019-05-10T23:40:09.360Z,99.90
2019-05-10T23:42:37.824Z,99.90
2019-05-10T23:45:07.202Z,99.90
2019-05-10T23:47:35.633Z,99.90
2019-05-10T23:50:04.810Z,99.90
2019-05-10T23:52:33.245Z,99.90
2019-05-10T23:55:01.656Z,99.90
2019-05-10T23:57:30.082Z,99.90
2019-05-10T23:59:58.522Z,99.90
